sensor_id;sensor_type;location;lat;lon;timestamp;P1;durP1;ratioP1;P2;durP2;ratioP2
5882;SDS011;2967;51.488;6.618;2022-08-25T00:00:39;7.03;;;4.30;;
5882;SDS011;2967;51.488;6.618;2022-08-25T00:05:45;5.47;;;3.70;;
5882;SDS011;2967;51.488;6.618;2022-08-25T00:10:49;9.53;;;3.90;;
5882;SDS011;2967;51.488;6.618;2022-08-25T00:16:03;9.07;;;4.20;;
5882;SDS011;2967;51.488;6.618;2022-08-25T00:21:08;5.30;;;4.00;;
5882;SDS011;2967;51.488;6.618;2022-08-25T00:26:11;6.33;;;4.17;;
5882;SDS011;2967;51.488;6.618;2022-08-25T00:31:15;8.33;;;3.30;;
5882;SDS011;2967;51.488;6.618;2022-08-25T00:36:21;7.00;;;4.20;;
5882;SDS011;2967;51.488;6.618;2022-08-25T00:41:24;7.97;;;3.80;;
5882;SDS011;2967;51.488;6.618;2022-08-25T00:46:28;9.90;;;3.83;;
5882;SDS011;2967;51.488;6.618;2022-08-25T00:51:35;7.83;;;3.93;;
5882;SDS011;2967;51.488;6.618;2022-08-25T00:56:40;7.23;;;4.40;;
5882;SDS011;2967;51.488;6.618;2022-08-25T01:01:44;7.23;;;4.43;;
5882;SDS011;2967;51.488;6.618;2022-08-25T01:06:49;6.80;;;4.00;;
5882;SDS011;2967;51.488;6.618;2022-08-25T01:11:52;8.03;;;4.00;;
5882;SDS011;2967;51.488;6.618;2022-08-25T01:16:55;4.17;;;3.77;;
5882;SDS011;2967;51.488;6.618;2022-08-25T01:22:00;9.20;;;4.20;;
5882;SDS011;2967;51.488;6.618;2022-08-25T01:27:03;7.93;;;4.50;;
5882;SDS011;2967;51.488;6.618;2022-08-25T01:32:08;8.53;;;4.60;;
5882;SDS011;2967;51.488;6.618;2022-08-25T01:37:15;7.27;;;4.63;;
5882;SDS011;2967;51.488;6.618;2022-08-25T01:47:44;8.67;;;4.50;;
5882;SDS011;2967;51.488;6.618;2022-08-25T01:52:51;6.20;;;4.40;;
5882;SDS011;2967;51.488;6.618;2022-08-25T01:57:56;5.57;;;3.80;;
5882;SDS011;2967;51.488;6.618;2022-08-25T02:03:00;5.60;;;4.40;;
5882;SDS011;2967;51.488;6.618;2022-08-25T02:08:07;8.57;;;4.70;;
5882;SDS011;2967;51.488;6.618;2022-08-25T02:13:10;8.47;;;4.87;;
5882;SDS011;2967;51.488;6.618;2022-08-25T02:18:14;6.73;;;4.13;;
5882;SDS011;2967;51.488;6.618;2022-08-25T02:23:19;8.30;;;4.20;;
5882;SDS011;2967;51.488;6.618;2022-08-25T02:28:23;6.43;;;3.97;;
5882;SDS011;2967;51.488;6.618;2022-08-25T02:33:26;7.73;;;4.10;;
5882;SDS011;2967;51.488;6.618;2022-08-25T02:38:31;6.17;;;3.90;;
5882;SDS011;2967;51.488;6.618;2022-08-25T02:43:33;9.93;;;4.50;;
5882;SDS011;2967;51.488;6.618;2022-08-25T02:48:37;5.10;;;3.27;;
5882;SDS011;2967;51.488;6.618;2022-08-25T02:53:42;5.87;;;3.57;;
5882;SDS011;2967;51.488;6.618;2022-08-25T02:58:49;7.43;;;4.47;;
5882;SDS011;2967;51.488;6.618;2022-08-25T03:03:51;5.80;;;4.13;;
5882;SDS011;2967;51.488;6.618;2022-08-25T03:08:57;8.00;;;4.17;;
5882;SDS011;2967;51.488;6.618;2022-08-25T03:14:00;8.30;;;4.07;;
5882;SDS011;2967;51.488;6.618;2022-08-25T03:19:02;7.10;;;3.40;;
5882;SDS011;2967;51.488;6.618;2022-08-25T03:24:07;7.30;;;4.13;;
5882;SDS011;2967;51.488;6.618;2022-08-25T03:29:10;6.40;;;3.30;;
5882;SDS011;2967;51.488;6.618;2022-08-25T03:34:14;4.30;;;3.50;;
5882;SDS011;2967;51.488;6.618;2022-08-25T03:39:20;5.80;;;4.23;;
5882;SDS011;2967;51.488;6.618;2022-08-25T03:44:25;6.20;;;3.80;;
5882;SDS011;2967;51.488;6.618;2022-08-25T03:49:28;10.50;;;4.40;;
5882;SDS011;2967;51.488;6.618;2022-08-25T03:54:37;8.50;;;4.50;;
5882;SDS011;2967;51.488;6.618;2022-08-25T03:59:39;5.10;;;4.30;;
5882;SDS011;2967;51.488;6.618;2022-08-25T04:04:42;10.03;;;4.53;;
5882;SDS011;2967;51.488;6.618;2022-08-25T04:09:47;8.43;;;4.40;;
5882;SDS011;2967;51.488;6.618;2022-08-25T04:14:50;7.90;;;4.00;;
5882;SDS011;2967;51.488;6.618;2022-08-25T04:19:53;10.63;;;5.13;;
5882;SDS011;2967;51.488;6.618;2022-08-25T04:24:58;12.43;;;5.63;;
5882;SDS011;2967;51.488;6.618;2022-08-25T04:30:01;10.83;;;5.20;;
5882;SDS011;2967;51.488;6.618;2022-08-25T04:35:08;11.80;;;5.80;;
5882;SDS011;2967;51.488;6.618;2022-08-25T04:40:13;11.27;;;5.80;;
5882;SDS011;2967;51.488;6.618;2022-08-25T04:45:15;15.30;;;5.50;;
5882;SDS011;2967;51.488;6.618;2022-08-25T04:50:18;15.03;;;6.40;;
5882;SDS011;2967;51.488;6.618;2022-08-25T04:55:22;10.87;;;5.90;;
5882;SDS011;2967;51.488;6.618;2022-08-25T05:00:25;10.90;;;6.20;;
5882;SDS011;2967;51.488;6.618;2022-08-25T05:05:28;11.73;;;6.50;;
5882;SDS011;2967;51.488;6.618;2022-08-25T05:10:37;8.43;;;6.03;;
5882;SDS011;2967;51.488;6.618;2022-08-25T05:15:42;12.80;;;5.60;;
5882;SDS011;2967;51.488;6.618;2022-08-25T05:20:52;12.10;;;6.40;;
5882;SDS011;2967;51.488;6.618;2022-08-25T05:26:00;8.40;;;6.23;;
5882;SDS011;2967;51.488;6.618;2022-08-25T05:31:05;16.43;;;6.50;;
5882;SDS011;2967;51.488;6.618;2022-08-25T05:36:09;13.63;;;6.70;;
5882;SDS011;2967;51.488;6.618;2022-08-25T05:41:16;17.80;;;6.10;;
5882;SDS011;2967;51.488;6.618;2022-08-25T05:46:20;10.07;;;5.60;;
5882;SDS011;2967;51.488;6.618;2022-08-25T05:51:23;16.67;;;7.03;;
5882;SDS011;2967;51.488;6.618;2022-08-25T05:56:28;17.67;;;6.63;;
5882;SDS011;2967;51.488;6.618;2022-08-25T06:01:31;19.37;;;6.70;;
5882;SDS011;2967;51.488;6.618;2022-08-25T06:06:52;22.37;;;6.67;;
5882;SDS011;2967;51.488;6.618;2022-08-25T06:11:58;21.53;;;6.27;;
5882;SDS011;2967;51.488;6.618;2022-08-25T06:17:00;11.10;;;6.30;;
5882;SDS011;2967;51.488;6.618;2022-08-25T06:22:08;20.27;;;6.90;;
5882;SDS011;2967;51.488;6.618;2022-08-25T06:27:12;21.30;;;6.80;;
5882;SDS011;2967;51.488;6.618;2022-08-25T06:32:16;18.17;;;6.47;;
5882;SDS011;2967;51.488;6.618;2022-08-25T06:37:19;25.23;;;6.60;;
5882;SDS011;2967;51.488;6.618;2022-08-25T06:42:27;18.43;;;5.90;;
5882;SDS011;2967;51.488;6.618;2022-08-25T06:47:30;14.73;;;6.57;;
5882;SDS011;2967;51.488;6.618;2022-08-25T06:52:33;22.00;;;7.60;;
5882;SDS011;2967;51.488;6.618;2022-08-25T06:57:38;13.40;;;6.87;;
5882;SDS011;2967;51.488;6.618;2022-08-25T07:02:41;20.30;;;7.30;;
5882;SDS011;2967;51.488;6.618;2022-08-25T07:07:44;15.53;;;6.17;;
5882;SDS011;2967;51.488;6.618;2022-08-25T07:12:49;18.10;;;7.47;;
5882;SDS011;2967;51.488;6.618;2022-08-25T07:17:52;11.93;;;5.70;;
5882;SDS011;2967;51.488;6.618;2022-08-25T07:22:54;19.67;;;5.90;;
5882;SDS011;2967;51.488;6.618;2022-08-25T07:27:59;10.83;;;5.90;;
5882;SDS011;2967;51.488;6.618;2022-08-25T07:33:02;11.77;;;4.70;;
5882;SDS011;2967;51.488;6.618;2022-08-25T07:38:07;12.53;;;4.77;;
5882;SDS011;2967;51.488;6.618;2022-08-25T07:43:17;11.70;;;4.77;;
5882;SDS011;2967;51.488;6.618;2022-08-25T07:48:20;9.90;;;4.43;;
5882;SDS011;2967;51.488;6.618;2022-08-25T07:53:23;14.73;;;5.63;;
5882;SDS011;2967;51.488;6.618;2022-08-25T07:58:27;14.03;;;5.53;;
5882;SDS011;2967;51.488;6.618;2022-08-25T08:03:30;14.83;;;4.83;;
5882;SDS011;2967;51.488;6.618;2022-08-25T08:08:54;10.00;;;5.03;;
5882;SDS011;2967;51.488;6.618;2022-08-25T08:14:01;9.80;;;4.60;;
5882;SDS011;2967;51.488;6.618;2022-08-25T08:19:05;10.60;;;5.13;;
5882;SDS011;2967;51.488;6.618;2022-08-25T08:24:09;8.90;;;5.03;;
5882;SDS011;2967;51.488;6.618;2022-08-25T08:29:34;7.77;;;5.03;;
5882;SDS011;2967;51.488;6.618;2022-08-25T08:34:38;6.00;;;4.90;;
5882;SDS011;2967;51.488;6.618;2022-08-25T08:39:44;16.63;;;5.43;;
5882;SDS011;2967;51.488;6.618;2022-08-25T08:44:56;7.97;;;6.10;;
5882;SDS011;2967;51.488;6.618;2022-08-25T08:50:14;7.20;;;5.00;;
5882;SDS011;2967;51.488;6.618;2022-08-25T08:55:34;13.77;;;5.27;;
5882;SDS011;2967;51.488;6.618;2022-08-25T09:00:44;13.57;;;6.40;;
5882;SDS011;2967;51.488;6.618;2022-08-25T09:05:54;13.40;;;6.07;;
5882;SDS011;2967;51.488;6.618;2022-08-25T09:11:01;11.10;;;6.97;;
5882;SDS011;2967;51.488;6.618;2022-08-25T09:16:19;19.60;;;5.93;;
5882;SDS011;2967;51.488;6.618;2022-08-25T09:21:50;5.70;;;4.93;;
5882;SDS011;2967;51.488;6.618;2022-08-25T09:27:01;7.50;;;4.93;;
5882;SDS011;2967;51.488;6.618;2022-08-25T09:32:13;13.13;;;5.67;;
5882;SDS011;2967;51.488;6.618;2022-08-25T09:37:31;9.30;;;4.50;;
5882;SDS011;2967;51.488;6.618;2022-08-25T09:42:47;10.87;;;4.30;;
5882;SDS011;2967;51.488;6.618;2022-08-25T09:48:00;8.63;;;5.27;;
5882;SDS011;2967;51.488;6.618;2022-08-25T09:53:10;13.30;;;4.90;;
5882;SDS011;2967;51.488;6.618;2022-08-25T09:58:22;7.67;;;4.57;;
5882;SDS011;2967;51.488;6.618;2022-08-25T10:03:27;17.03;;;6.17;;
5882;SDS011;2967;51.488;6.618;2022-08-25T10:08:37;11.57;;;4.40;;
5882;SDS011;2967;51.488;6.618;2022-08-25T10:13:42;6.37;;;4.83;;
5882;SDS011;2967;51.488;6.618;2022-08-25T10:19:00;10.43;;;4.13;;
5882;SDS011;2967;51.488;6.618;2022-08-25T10:24:06;5.07;;;3.30;;
5882;SDS011;2967;51.488;6.618;2022-08-25T10:29:16;15.83;;;3.90;;
5882;SDS011;2967;51.488;6.618;2022-08-25T10:34:43;9.37;;;4.43;;
5882;SDS011;2967;51.488;6.618;2022-08-25T10:39:55;8.47;;;4.50;;
5882;SDS011;2967;51.488;6.618;2022-08-25T10:45:09;7.07;;;4.40;;
5882;SDS011;2967;51.488;6.618;2022-08-25T10:50:42;16.40;;;4.67;;
5882;SDS011;2967;51.488;6.618;2022-08-25T10:55:53;10.17;;;3.50;;
5882;SDS011;2967;51.488;6.618;2022-08-25T11:01:08;6.90;;;3.50;;
5882;SDS011;2967;51.488;6.618;2022-08-25T11:06:19;3.97;;;3.57;;
5882;SDS011;2967;51.488;6.618;2022-08-25T11:11:27;4.87;;;3.90;;
5882;SDS011;2967;51.488;6.618;2022-08-25T11:16:37;5.27;;;4.10;;
5882;SDS011;2967;51.488;6.618;2022-08-25T11:21:51;6.83;;;3.63;;
5882;SDS011;2967;51.488;6.618;2022-08-25T11:26:57;3.97;;;3.50;;
5882;SDS011;2967;51.488;6.618;2022-08-25T11:32:02;4.57;;;3.90;;
5882;SDS011;2967;51.488;6.618;2022-08-25T11:37:11;4.00;;;3.60;;
5882;SDS011;2967;51.488;6.618;2022-08-25T11:42:24;5.20;;;3.20;;
5882;SDS011;2967;51.488;6.618;2022-08-25T11:47:45;9.10;;;3.73;;
5882;SDS011;2967;51.488;6.618;2022-08-25T11:53:18;4.40;;;3.53;;
5882;SDS011;2967;51.488;6.618;2022-08-25T11:58:31;5.60;;;3.70;;
5882;SDS011;2967;51.488;6.618;2022-08-25T12:03:55;4.63;;;3.53;;
5882;SDS011;2967;51.488;6.618;2022-08-25T12:09:18;6.13;;;4.20;;
5882;SDS011;2967;51.488;6.618;2022-08-25T12:14:40;4.10;;;3.80;;
5882;SDS011;2967;51.488;6.618;2022-08-25T12:19:51;3.97;;;3.63;;
5882;SDS011;2967;51.488;6.618;2022-08-25T12:25:00;4.70;;;3.77;;
5882;SDS011;2967;51.488;6.618;2022-08-25T12:30:12;7.97;;;3.47;;
5882;SDS011;2967;51.488;6.618;2022-08-25T12:35:23;5.07;;;3.43;;
5882;SDS011;2967;51.488;6.618;2022-08-25T12:40:34;6.03;;;3.73;;
5882;SDS011;2967;51.488;6.618;2022-08-25T12:45:40;3.13;;;2.83;;
5882;SDS011;2967;51.488;6.618;2022-08-25T12:50:45;5.40;;;3.13;;
5882;SDS011;2967;51.488;6.618;2022-08-25T12:56:00;4.63;;;3.37;;
5882;SDS011;2967;51.488;6.618;2022-08-25T13:01:11;4.13;;;2.77;;
5882;SDS011;2967;51.488;6.618;2022-08-25T13:06:43;7.80;;;2.70;;
5882;SDS011;2967;51.488;6.618;2022-08-25T13:12:04;3.57;;;3.27;;
5882;SDS011;2967;51.488;6.618;2022-08-25T13:17:23;3.20;;;2.87;;
5882;SDS011;2967;51.488;6.618;2022-08-25T13:22:26;2.83;;;2.53;;
5882;SDS011;2967;51.488;6.618;2022-08-25T13:27:32;3.00;;;2.70;;
5882;SDS011;2967;51.488;6.618;2022-08-25T13:32:36;4.80;;;2.60;;
5882;SDS011;2967;51.488;6.618;2022-08-25T13:37:40;4.60;;;2.60;;
5882;SDS011;2967;51.488;6.618;2022-08-25T13:42:46;4.13;;;3.70;;
5882;SDS011;2967;51.488;6.618;2022-08-25T13:47:56;3.93;;;3.53;;
5882;SDS011;2967;51.488;6.618;2022-08-25T13:53:00;3.10;;;2.63;;
5882;SDS011;2967;51.488;6.618;2022-08-25T13:58:12;3.83;;;2.33;;
5882;SDS011;2967;51.488;6.618;2022-08-25T14:03:29;4.37;;;2.47;;
5882;SDS011;2967;51.488;6.618;2022-08-25T14:08:36;3.50;;;2.30;;
5882;SDS011;2967;51.488;6.618;2022-08-25T14:13:43;2.90;;;2.60;;
5882;SDS011;2967;51.488;6.618;2022-08-25T14:18:47;7.00;;;2.63;;
5882;SDS011;2967;51.488;6.618;2022-08-25T14:23:53;2.83;;;2.63;;
5882;SDS011;2967;51.488;6.618;2022-08-25T14:28:58;2.50;;;2.30;;
5882;SDS011;2967;51.488;6.618;2022-08-25T14:34:02;5.10;;;2.47;;
5882;SDS011;2967;51.488;6.618;2022-08-25T14:39:07;3.93;;;2.83;;
5882;SDS011;2967;51.488;6.618;2022-08-25T14:44:12;3.03;;;2.83;;
5882;SDS011;2967;51.488;6.618;2022-08-25T14:49:16;3.47;;;2.77;;
5882;SDS011;2967;51.488;6.618;2022-08-25T14:54:25;3.10;;;2.60;;
5882;SDS011;2967;51.488;6.618;2022-08-25T14:59:30;3.43;;;3.13;;
5882;SDS011;2967;51.488;6.618;2022-08-25T15:04:34;5.27;;;4.77;;
5882;SDS011;2967;51.488;6.618;2022-08-25T15:09:38;3.00;;;2.80;;
5882;SDS011;2967;51.488;6.618;2022-08-25T15:14:44;3.80;;;2.90;;
5882;SDS011;2967;51.488;6.618;2022-08-25T15:19:48;4.30;;;3.07;;
5882;SDS011;2967;51.488;6.618;2022-08-25T15:25:05;3.27;;;2.93;;
5882;SDS011;2967;51.488;6.618;2022-08-25T15:30:11;5.37;;;4.40;;
5882;SDS011;2967;51.488;6.618;2022-08-25T15:35:18;6.83;;;3.30;;
5882;SDS011;2967;51.488;6.618;2022-08-25T15:40:29;3.97;;;2.60;;
5882;SDS011;2967;51.488;6.618;2022-08-25T15:45:33;2.93;;;2.70;;
5882;SDS011;2967;51.488;6.618;2022-08-25T15:50:40;7.57;;;2.80;;
5882;SDS011;2967;51.488;6.618;2022-08-25T15:55:44;6.43;;;3.33;;
5882;SDS011;2967;51.488;6.618;2022-08-25T16:00:48;3.23;;;3.00;;
5882;SDS011;2967;51.488;6.618;2022-08-25T16:05:57;7.50;;;3.87;;
5882;SDS011;2967;51.488;6.618;2022-08-25T16:11:00;5.07;;;3.80;;
5882;SDS011;2967;51.488;6.618;2022-08-25T16:16:04;8.33;;;3.20;;
5882;SDS011;2967;51.488;6.618;2022-08-25T16:21:11;3.53;;;3.10;;
5882;SDS011;2967;51.488;6.618;2022-08-25T16:26:16;4.53;;;3.77;;
5882;SDS011;2967;51.488;6.618;2022-08-25T16:31:20;4.10;;;3.70;;
5882;SDS011;2967;51.488;6.618;2022-08-25T16:36:24;5.90;;;3.30;;
5882;SDS011;2967;51.488;6.618;2022-08-25T16:41:29;4.03;;;3.63;;
5882;SDS011;2967;51.488;6.618;2022-08-25T16:46:37;7.40;;;4.30;;
5882;SDS011;2967;51.488;6.618;2022-08-25T16:51:45;3.73;;;3.40;;
5882;SDS011;2967;51.488;6.618;2022-08-25T16:56:56;2.90;;;2.70;;
5882;SDS011;2967;51.488;6.618;2022-08-25T17:02:11;3.63;;;3.03;;
5882;SDS011;2967;51.488;6.618;2022-08-25T17:07:16;3.50;;;3.20;;
5882;SDS011;2967;51.488;6.618;2022-08-25T17:12:24;5.50;;;3.53;;
5882;SDS011;2967;51.488;6.618;2022-08-25T17:17:29;3.40;;;3.10;;
5882;SDS011;2967;51.488;6.618;2022-08-25T17:22:38;3.37;;;3.07;;
5882;SDS011;2967;51.488;6.618;2022-08-25T17:27:41;4.47;;;3.20;;
5882;SDS011;2967;51.488;6.618;2022-08-25T17:32:45;9.97;;;5.40;;
5882;SDS011;2967;51.488;6.618;2022-08-25T17:37:51;4.13;;;3.70;;
5882;SDS011;2967;51.488;6.618;2022-08-25T17:42:55;4.80;;;3.80;;
5882;SDS011;2967;51.488;6.618;2022-08-25T17:47:59;4.63;;;3.40;;
5882;SDS011;2967;51.488;6.618;2022-08-25T17:53:06;9.17;;;4.20;;
5882;SDS011;2967;51.488;6.618;2022-08-25T17:58:10;3.80;;;3.43;;
5882;SDS011;2967;51.488;6.618;2022-08-25T18:03:19;6.60;;;3.23;;
5882;SDS011;2967;51.488;6.618;2022-08-25T18:08:22;3.27;;;2.93;;
5882;SDS011;2967;51.488;6.618;2022-08-25T18:13:32;4.73;;;3.03;;
5882;SDS011;2967;51.488;6.618;2022-08-25T18:18:38;3.80;;;3.00;;
5882;SDS011;2967;51.488;6.618;2022-08-25T18:23:42;3.70;;;2.90;;
5882;SDS011;2967;51.488;6.618;2022-08-25T18:28:47;3.20;;;2.50;;
5882;SDS011;2967;51.488;6.618;2022-08-25T18:33:51;3.40;;;2.60;;
5882;SDS011;2967;51.488;6.618;2022-08-25T18:38:55;5.27;;;3.00;;
5882;SDS011;2967;51.488;6.618;2022-08-25T18:44:17;4.90;;;3.30;;
5882;SDS011;2967;51.488;6.618;2022-08-25T18:49:22;4.60;;;2.60;;
5882;SDS011;2967;51.488;6.618;2022-08-25T18:54:28;8.73;;;3.47;;
5882;SDS011;2967;51.488;6.618;2022-08-25T18:59:31;3.17;;;2.87;;
5882;SDS011;2967;51.488;6.618;2022-08-25T19:04:36;4.33;;;3.93;;
5882;SDS011;2967;51.488;6.618;2022-08-25T19:09:42;4.70;;;3.87;;
5882;SDS011;2967;51.488;6.618;2022-08-25T19:14:45;5.00;;;2.87;;
5882;SDS011;2967;51.488;6.618;2022-08-25T19:19:49;6.70;;;3.33;;
5882;SDS011;2967;51.488;6.618;2022-08-25T19:24:52;5.60;;;3.47;;
5882;SDS011;2967;51.488;6.618;2022-08-25T19:29:56;5.37;;;4.10;;
5882;SDS011;2967;51.488;6.618;2022-08-25T19:35:01;6.00;;;3.50;;
5882;SDS011;2967;51.488;6.618;2022-08-25T19:40:05;4.90;;;3.40;;
5882;SDS011;2967;51.488;6.618;2022-08-25T19:45:11;4.80;;;3.87;;
5882;SDS011;2967;51.488;6.618;2022-08-25T19:50:16;11.90;;;9.00;;
5882;SDS011;2967;51.488;6.618;2022-08-25T19:55:20;8.03;;;4.50;;
5882;SDS011;2967;51.488;6.618;2022-08-25T20:00:25;7.73;;;4.97;;
5882;SDS011;2967;51.488;6.618;2022-08-25T20:05:32;8.33;;;4.63;;
5882;SDS011;2967;51.488;6.618;2022-08-25T20:10:36;14.93;;;6.00;;
5882;SDS011;2967;51.488;6.618;2022-08-25T20:15:42;11.50;;;4.73;;
5882;SDS011;2967;51.488;6.618;2022-08-25T20:20:46;16.67;;;4.47;;
5882;SDS011;2967;51.488;6.618;2022-08-25T20:25:49;10.93;;;4.33;;
5882;SDS011;2967;51.488;6.618;2022-08-25T20:30:53;15.87;;;5.10;;
5882;SDS011;2967;51.488;6.618;2022-08-25T20:35:57;20.13;;;4.60;;
5882;SDS011;2967;51.488;6.618;2022-08-25T20:41:02;9.80;;;5.30;;
5882;SDS011;2967;51.488;6.618;2022-08-25T20:46:13;9.07;;;5.50;;
5882;SDS011;2967;51.488;6.618;2022-08-25T20:51:20;13.70;;;5.30;;
5882;SDS011;2967;51.488;6.618;2022-08-25T20:56:25;9.70;;;5.80;;
5882;SDS011;2967;51.488;6.618;2022-08-25T21:01:30;12.80;;;5.70;;
5882;SDS011;2967;51.488;6.618;2022-08-25T21:06:44;29.30;;;14.30;;
5882;SDS011;2967;51.488;6.618;2022-08-25T21:11:48;16.60;;;7.53;;
5882;SDS011;2967;51.488;6.618;2022-08-25T21:16:53;21.50;;;7.60;;
5882;SDS011;2967;51.488;6.618;2022-08-25T21:21:58;24.43;;;7.10;;
5882;SDS011;2967;51.488;6.618;2022-08-25T21:27:02;24.83;;;7.90;;
5882;SDS011;2967;51.488;6.618;2022-08-25T21:32:06;22.73;;;6.40;;
5882;SDS011;2967;51.488;6.618;2022-08-25T21:37:11;16.93;;;5.33;;
5882;SDS011;2967;51.488;6.618;2022-08-25T21:42:14;17.00;;;6.07;;
5882;SDS011;2967;51.488;6.618;2022-08-25T21:47:16;19.20;;;6.10;;
5882;SDS011;2967;51.488;6.618;2022-08-25T21:52:23;17.60;;;6.20;;
5882;SDS011;2967;51.488;6.618;2022-08-25T21:57:26;16.70;;;6.97;;
5882;SDS011;2967;51.488;6.618;2022-08-25T22:02:29;10.27;;;6.53;;
5882;SDS011;2967;51.488;6.618;2022-08-25T22:07:35;10.87;;;5.70;;
5882;SDS011;2967;51.488;6.618;2022-08-25T22:12:42;15.20;;;5.40;;
5882;SDS011;2967;51.488;6.618;2022-08-25T22:17:45;14.60;;;5.13;;
5882;SDS011;2967;51.488;6.618;2022-08-25T22:22:51;11.60;;;6.07;;
5882;SDS011;2967;51.488;6.618;2022-08-25T22:27:54;7.57;;;5.00;;
5882;SDS011;2967;51.488;6.618;2022-08-25T22:32:57;10.63;;;5.30;;
5882;SDS011;2967;51.488;6.618;2022-08-25T22:38:02;7.33;;;4.53;;
5882;SDS011;2967;51.488;6.618;2022-08-25T22:43:07;12.47;;;5.93;;
5882;SDS011;2967;51.488;6.618;2022-08-25T22:48:11;11.70;;;5.80;;
5882;SDS011;2967;51.488;6.618;2022-08-25T22:53:15;9.40;;;5.80;;
5882;SDS011;2967;51.488;6.618;2022-08-25T22:58:19;8.23;;;5.97;;
5882;SDS011;2967;51.488;6.618;2022-08-25T23:03:21;22.17;;;5.90;;
5882;SDS011;2967;51.488;6.618;2022-08-25T23:08:26;8.40;;;5.83;;
5882;SDS011;2967;51.488;6.618;2022-08-25T23:13:41;9.30;;;6.00;;
5882;SDS011;2967;51.488;6.618;2022-08-25T23:18:44;8.27;;;5.17;;
5882;SDS011;2967;51.488;6.618;2022-08-25T23:23:48;8.93;;;5.57;;
5882;SDS011;2967;51.488;6.618;2022-08-25T23:28:52;13.37;;;5.57;;
5882;SDS011;2967;51.488;6.618;2022-08-25T23:33:55;7.93;;;5.67;;
5882;SDS011;2967;51.488;6.618;2022-08-25T23:38:59;7.60;;;5.60;;
5882;SDS011;2967;51.488;6.618;2022-08-25T23:44:04;13.60;;;6.20;;
5882;SDS011;2967;51.488;6.618;2022-08-25T23:49:10;10.90;;;7.70;;
5882;SDS011;2967;51.488;6.618;2022-08-25T23:54:16;15.13;;;12.97;;
5882;SDS011;2967;51.488;6.618;2022-08-25T23:59:31;18.50;;;14.93;;
